createdAt,value
2023-03-02T00:03:11.202Z,84.57
2023-03-02T00:08:17.148Z,84.96
2023-03-02T00:13:19.852Z,85.58
2023-03-02T00:18:22.527Z,84.89
2023-03-02T00:23:25.180Z,85.61
2023-03-02T00:28:27.870Z,85.37
2023-03-02T00:33:31.091Z,85.75
2023-03-02T00:38:33.683Z,85.22
2023-03-02T00:43:36.341Z,84.92
2023-03-02T00:48:39.265Z,85.29
2023-03-02T00:53:41.988Z,85.36
2023-03-02T00:58:44.823Z,85.48
2023-03-02T01:03:47.865Z,85.64
2023-03-02T01:08:51.078Z,85.79
2023-03-02T01:13:53.819Z,85.78
2023-03-02T01:18:56.467Z,85.46
2023-03-02T01:23:59.268Z,85.21
2023-03-02T01:29:02.096Z,85.11
2023-03-02T01:34:04.989Z,85.45
2023-03-02T01:39:07.569Z,85.90
2023-03-02T01:44:35.241Z,85.42
2023-03-02T01:49:38.238Z,85.25
2023-03-02T01:54:44.718Z,85.00
2023-03-02T01:59:49.345Z,84.89
2023-03-02T02:04:53.323Z,84.72
2023-03-02T02:09:57.336Z,84.83
2023-03-02T02:15:01.545Z,84.46
2023-03-02T02:20:24.348Z,83.52
2023-03-02T02:25:48.206Z,83.73
2023-03-02T02:30:57.103Z,83.47
2023-03-02T02:36:06.184Z,83.65
2023-03-02T02:41:17.567Z,83.81
2023-03-02T02:46:20.929Z,82.85
2023-03-02T02:51:29.696Z,83.57
2023-03-02T02:56:36.239Z,83.76
2023-03-02T03:01:40.288Z,86.97
2023-03-02T03:06:51.420Z,86.85
2023-03-02T03:12:13.604Z,86.47
2023-03-02T03:17:16.616Z,86.49
2023-03-02T03:22:26.391Z,86.60
2023-03-02T03:27:29.344Z,86.09
2023-03-02T03:32:35.554Z,85.74
2023-03-02T03:37:42.104Z,85.59
2023-03-02T03:42:45.910Z,85.98
2023-03-02T03:47:49.085Z,86.13
2023-03-02T03:52:52.259Z,85.67
2023-03-02T03:58:00.622Z,85.16
2023-03-02T04:03:03.670Z,85.73
2023-03-02T04:08:08.466Z,85.37
2023-03-02T04:13:11.807Z,85.63
2023-03-02T04:18:15.548Z,85.33
2023-03-02T04:23:18.599Z,84.98
2023-03-02T04:28:22.101Z,85.11
2023-03-02T04:33:25.492Z,85.63
2023-03-02T04:38:30.282Z,85.85
2023-03-02T04:43:33.958Z,85.81
2023-03-02T04:48:36.586Z,85.56
2023-03-02T04:53:39.263Z,85.51
2023-03-02T04:58:41.944Z,85.33
2023-03-02T05:03:46.301Z,84.75
2023-03-02T05:08:49.425Z,85.28
2023-03-02T05:13:55.246Z,85.07
2023-03-02T05:18:59.371Z,84.51
2023-03-02T05:24:03.355Z,84.36
2023-03-02T05:29:06.448Z,84.35
2023-03-02T05:34:11.433Z,83.69
2023-03-02T05:39:14.271Z,83.35
2023-03-02T05:44:16.959Z,82.90
2023-03-02T05:49:19.622Z,82.64
2023-03-02T05:54:22.434Z,82.18
2023-03-02T05:59:25.121Z,81.65
2023-03-02T06:04:27.745Z,81.52
2023-03-02T06:09:30.324Z,80.65
2023-03-02T06:14:33.235Z,80.90
2023-03-02T06:19:36.022Z,79.66
2023-03-02T06:24:38.724Z,79.30
2023-03-02T06:29:41.597Z,78.53
2023-03-02T06:34:44.530Z,77.30
2023-03-02T06:39:47.280Z,76.22
2023-03-02T06:44:51.445Z,75.13
2023-03-02T06:49:54.109Z,73.43
2023-03-02T06:54:56.741Z,72.76
2023-03-02T07:00:01.103Z,71.04
2023-03-02T07:05:04.049Z,69.47
2023-03-02T07:10:08.105Z,68.11
2023-03-02T07:15:12.498Z,67.16
2023-03-02T07:20:17.193Z,66.74
2023-03-02T07:25:19.879Z,65.22
2023-03-02T07:30:22.572Z,65.12
2023-03-02T07:35:25.366Z,65.57
2023-03-02T07:40:27.989Z,64.71
2023-03-02T07:45:30.748Z,64.62
2023-03-02T07:50:33.911Z,63.59
2023-03-02T07:55:41.135Z,61.83
2023-03-02T08:00:43.688Z,61.09
2023-03-02T08:05:46.395Z,60.14
2023-03-02T08:10:50.415Z,59.60
2023-03-02T08:16:00.070Z,60.11
2023-03-02T08:21:03.202Z,58.69
2023-03-02T08:26:05.808Z,58.81
2023-03-02T08:31:09.299Z,58.39
2023-03-02T08:36:17.995Z,57.23
2023-03-02T08:41:23.187Z,56.83
2023-03-02T08:46:25.825Z,57.42
2023-03-02T08:51:29.074Z,58.24
2023-03-02T08:56:35.077Z,58.03
2023-03-02T09:01:39.009Z,57.45
2023-03-02T09:06:44.190Z,56.35
2023-03-02T09:11:47.054Z,55.90
2023-03-02T09:16:49.809Z,56.06
2023-03-02T09:21:52.548Z,55.71
2023-03-02T09:26:55.220Z,55.95
2023-03-02T09:31:57.980Z,55.04
2023-03-02T09:37:00.658Z,55.02
2023-03-02T09:42:15.323Z,53.54
2023-03-02T09:47:41.204Z,54.16
2023-03-02T09:53:01.805Z,54.04
2023-03-02T09:58:16.066Z,53.04
2023-03-02T10:03:35.055Z,53.18
2023-03-02T10:08:39.321Z,53.38
2023-03-02T10:13:47.825Z,53.15
2023-03-02T10:19:29.725Z,52.18
2023-03-02T10:24:38.360Z,52.90
2023-03-02T10:29:50.003Z,52.69
2023-03-02T10:34:53.557Z,52.73
2023-03-02T10:39:57.025Z,53.25
2023-03-02T10:45:05.940Z,53.33
2023-03-02T10:50:24.234Z,53.01
2023-03-02T10:55:27.023Z,53.50
2023-03-02T11:00:31.491Z,53.38
2023-03-02T11:05:37.357Z,53.56
2023-03-02T11:10:51.460Z,53.81
2023-03-02T11:15:59.766Z,53.60
2023-03-02T11:21:11.794Z,54.16
2023-03-02T11:26:28.386Z,54.26
2023-03-02T11:31:39.784Z,54.91
2023-03-02T11:36:44.784Z,55.47
2023-03-02T11:41:47.436Z,54.63
2023-03-02T11:47:01.504Z,53.90
2023-03-02T11:52:04.481Z,54.40
2023-03-02T11:57:28.866Z,54.87
2023-03-02T12:02:31.499Z,55.12
2023-03-02T12:07:34.282Z,55.21
2023-03-02T12:12:41.961Z,55.36
2023-03-02T12:17:44.672Z,55.59
2023-03-02T12:22:47.372Z,56.37
2023-03-02T12:27:53.629Z,56.63
2023-03-02T12:33:19.729Z,57.32
2023-03-02T12:38:32.779Z,57.86
2023-03-02T12:43:37.815Z,58.09
2023-03-02T12:49:12.115Z,61.03
2023-03-02T12:54:20.705Z,60.15
2023-03-02T12:59:28.724Z,59.72
2023-03-02T13:04:31.559Z,59.76
2023-03-02T13:09:34.421Z,59.68
2023-03-02T13:14:41.381Z,60.96
2023-03-02T13:19:44.073Z,60.69
2023-03-02T13:24:55.563Z,60.92
2023-03-02T13:30:11.710Z,61.53
2023-03-02T13:35:26.564Z,60.98
2023-03-02T13:40:51.564Z,60.59
2023-03-02T13:45:58.397Z,60.98
2023-03-02T13:51:04.261Z,61.68
2023-03-02T13:56:08.526Z,61.73
2023-03-02T14:01:13.156Z,63.41
2023-03-02T14:06:18.791Z,64.31
2023-03-02T14:11:21.576Z,65.24
2023-03-02T14:16:24.603Z,65.95
2023-03-02T14:21:27.872Z,65.96
2023-03-02T14:26:33.379Z,65.18
2023-03-02T14:31:36.260Z,64.87
2023-03-02T14:36:40.089Z,64.72
2023-03-02T14:41:52.940Z,64.46
2023-03-02T14:46:57.684Z,65.41
2023-03-02T14:52:03.216Z,67.51
2023-03-02T14:57:08.093Z,70.37
2023-03-02T15:02:24.308Z,71.61
2023-03-02T15:07:28.607Z,73.63
2023-03-02T15:12:31.200Z,76.73
2023-03-02T15:17:33.882Z,74.98
2023-03-02T15:22:36.473Z,75.97
2023-03-02T15:27:39.528Z,75.48
2023-03-02T15:32:42.154Z,75.46
2023-03-02T15:37:45.221Z,75.65
2023-03-02T15:42:48.150Z,76.41
2023-03-02T15:47:50.826Z,76.29
2023-03-02T15:52:54.394Z,76.07
2023-03-02T15:57:58.279Z,75.81
2023-03-02T16:03:01.158Z,75.24
2023-03-02T16:08:04.036Z,75.30
2023-03-02T16:13:07.185Z,76.56
2023-03-02T16:18:11.104Z,75.87
2023-03-02T16:23:15.979Z,78.00
2023-03-02T16:28:19.797Z,78.56
2023-03-02T16:33:22.471Z,78.39
2023-03-02T16:38:25.329Z,79.07
2023-03-02T16:43:28.089Z,78.77
2023-03-02T16:48:30.684Z,78.57
2023-03-02T16:53:34.642Z,80.20
2023-03-02T16:58:39.832Z,82.35
2023-03-02T17:03:43.199Z,83.36
2023-03-02T17:08:45.886Z,84.46
2023-03-02T17:13:48.808Z,84.79
2023-03-02T17:18:51.452Z,83.33
2023-03-02T17:23:54.097Z,82.77
2023-03-02T17:28:56.737Z,83.24
2023-03-02T17:33:59.439Z,83.72
2023-03-02T17:39:02.396Z,83.59
2023-03-02T17:44:06.126Z,84.14
2023-03-02T17:49:08.732Z,83.76
2023-03-02T17:54:11.622Z,84.12
2023-03-02T17:59:14.317Z,83.14
2023-03-02T18:04:21.075Z,83.71
2023-03-02T18:09:23.795Z,83.53
2023-03-02T18:14:28.580Z,83.56
2023-03-02T18:19:31.883Z,83.75
2023-03-02T18:24:34.672Z,84.63
2023-03-02T18:29:37.430Z,84.39
2023-03-02T18:34:40.372Z,84.43
2023-03-02T18:39:43.917Z,84.59
2023-03-02T18:44:47.009Z,85.26
2023-03-02T18:49:50.868Z,84.46
2023-03-02T18:55:08.609Z,85.50
2023-03-02T19:00:27.591Z,86.60
2023-03-02T19:05:33.558Z,86.33
2023-03-02T19:10:42.505Z,85.89
2023-03-02T19:15:47.299Z,85.68
2023-03-02T19:20:51.710Z,86.27
2023-03-02T19:25:57.562Z,86.70
2023-03-02T19:31:06.983Z,86.18
2023-03-02T19:36:10.100Z,86.63
2023-03-02T19:41:21.594Z,85.87
2023-03-02T19:46:26.201Z,86.65
2023-03-02T19:51:28.994Z,87.51
2023-03-02T19:56:34.980Z,87.08
2023-03-02T20:01:37.853Z,87.23
2023-03-02T20:06:44.158Z,88.07
2023-03-02T20:11:47.715Z,88.13
2023-03-02T20:16:51.705Z,88.57
2023-03-02T20:21:54.368Z,88.53
2023-03-02T20:26:57.090Z,88.58
2023-03-02T20:32:02.135Z,88.23
2023-03-02T20:37:06.035Z,88.49
2023-03-02T20:42:10.288Z,89.08
2023-03-02T20:47:15.730Z,88.95
2023-03-02T20:52:18.633Z,88.78
2023-03-02T20:57:22.288Z,89.80
2023-03-02T21:02:24.914Z,90.37
2023-03-02T21:07:27.725Z,90.53
2023-03-02T21:12:30.715Z,90.01
2023-03-02T21:17:33.491Z,89.66
2023-03-02T21:22:36.162Z,89.34
2023-03-02T21:27:40.295Z,89.29
2023-03-02T21:32:45.667Z,90.00
2023-03-02T21:37:50.829Z,90.69
2023-03-02T21:42:54.321Z,91.52
2023-03-02T21:47:57.040Z,91.50
2023-03-02T21:52:59.700Z,91.80
2023-03-02T21:58:02.503Z,90.92
2023-03-02T22:03:05.844Z,90.81
2023-03-02T22:08:13.502Z,89.83
2023-03-02T22:13:26.579Z,90.51
2023-03-02T22:18:29.550Z,91.25
2023-03-02T22:23:32.140Z,93.29
2023-03-02T22:28:40.739Z,94.30
2023-03-02T22:33:43.425Z,94.88
2023-03-02T22:38:46.097Z,95.56
2023-03-02T22:43:49.633Z,95.95
2023-03-02T22:48:53.438Z,96.30
2023-03-02T22:54:00.527Z,96.44
2023-03-02T22:59:25.930Z,97.10
2023-03-02T23:04:35.557Z,97.19
2023-03-02T23:09:38.110Z,97.10
2023-03-02T23:15:01.003Z,97.90
2023-03-02T23:20:06.420Z,97.47
2023-03-02T23:25:09.598Z,97.63
2023-03-02T23:30:12.441Z,97.74
2023-03-02T23:35:15.169Z,100.00
2023-03-02T23:40:17.937Z,100.00
2023-03-02T23:45:20.636Z,100.00
2023-03-02T23:50:23.238Z,100.00
2023-03-02T23:55:25.840Z,100.00
